sensor_id;sensor_type;location;lat;lon;timestamp;P1;durP1;ratioP1;P2;durP2;ratioP2
46216;SDS011;47258;59.424;13.482;2022-08-01T00:02:13;3.78;;;2.72;;
46216;SDS011;47258;59.424;13.482;2022-08-01T00:04:40;3.13;;;2.63;;
46216;SDS011;47258;59.424;13.482;2022-08-01T00:07:07;3.03;;;1.70;;
46216;SDS011;47258;59.424;13.482;2022-08-01T00:09:35;1.80;;;1.70;;
46216;SDS011;47258;59.424;13.482;2022-08-01T00:12:03;7.00;;;2.10;;
46216;SDS011;47258;59.424;13.482;2022-08-01T00:14:30;2.78;;;2.10;;
46216;SDS011;47258;59.424;13.482;2022-08-01T00:16:57;2.10;;;1.85;;
46216;SDS011;47258;59.424;13.482;2022-08-01T00:19:24;3.90;;;2.20;;
46216;SDS011;47258;59.424;13.482;2022-08-01T00:21:51;2.30;;;2.10;;
46216;SDS011;47258;59.424;13.482;2022-08-01T00:24:18;2.65;;;2.42;;
46216;SDS011;47258;59.424;13.482;2022-08-01T00:26:47;2.30;;;2.10;;
46216;SDS011;47258;59.424;13.482;2022-08-01T00:29:14;4.75;;;1.90;;
46216;SDS011;47258;59.424;13.482;2022-08-01T00:31:41;2.03;;;1.88;;
46216;SDS011;47258;59.424;13.482;2022-08-01T00:34:08;4.25;;;2.08;;
46216;SDS011;47258;59.424;13.482;2022-08-01T00:36:35;3.17;;;2.08;;
46216;SDS011;47258;59.424;13.482;2022-08-01T00:39:02;3.70;;;2.35;;
46216;SDS011;47258;59.424;13.482;2022-08-01T00:41:29;1.75;;;1.65;;
46216;SDS011;47258;59.424;13.482;2022-08-01T00:43:57;1.85;;;1.73;;
46216;SDS011;47258;59.424;13.482;2022-08-01T00:46:24;1.38;;;1.27;;
46216;SDS011;47258;59.424;13.482;2022-08-01T00:48:51;1.85;;;1.30;;
46216;SDS011;47258;59.424;13.482;2022-08-01T00:51:18;1.33;;;1.20;;
46216;SDS011;47258;59.424;13.482;2022-08-01T00:53:45;1.25;;;1.15;;
46216;SDS011;47258;59.424;13.482;2022-08-01T00:56:12;2.85;;;1.25;;
46216;SDS011;47258;59.424;13.482;2022-08-01T00:58:40;0.80;;;0.80;;
46216;SDS011;47258;59.424;13.482;2022-08-01T01:01:09;2.53;;;1.02;;
46216;SDS011;47258;59.424;13.482;2022-08-01T01:03:36;0.77;;;0.75;;
46216;SDS011;47258;59.424;13.482;2022-08-01T01:06:06;3.83;;;1.20;;
46216;SDS011;47258;59.424;13.482;2022-08-01T01:08:43;1.58;;;1.23;;
46216;SDS011;47258;59.424;13.482;2022-08-01T01:11:16;0.77;;;0.77;;
46216;SDS011;47258;59.424;13.482;2022-08-01T01:13:49;4.32;;;1.10;;
46216;SDS011;47258;59.424;13.482;2022-08-01T01:16:24;1.27;;;1.00;;
46216;SDS011;47258;59.424;13.482;2022-08-01T01:18:53;0.63;;;0.63;;
46216;SDS011;47258;59.424;13.482;2022-08-01T01:21:29;1.58;;;0.70;;
46216;SDS011;47258;59.424;13.482;2022-08-01T01:24:10;1.30;;;1.02;;
46216;SDS011;47258;59.424;13.482;2022-08-01T01:26:43;2.35;;;0.80;;
46216;SDS011;47258;59.424;13.482;2022-08-01T01:29:18;0.60;;;0.60;;
46216;SDS011;47258;59.424;13.482;2022-08-01T01:31:50;5.05;;;1.35;;
46216;SDS011;47258;59.424;13.482;2022-08-01T01:34:21;3.50;;;1.40;;
46216;SDS011;47258;59.424;13.482;2022-08-01T01:36:50;0.85;;;0.85;;
46216;SDS011;47258;59.424;13.482;2022-08-01T01:39:20;3.67;;;1.52;;
46216;SDS011;47258;59.424;13.482;2022-08-01T01:41:48;1.42;;;1.20;;
46216;SDS011;47258;59.424;13.482;2022-08-01T01:44:18;3.43;;;1.50;;
46216;SDS011;47258;59.424;13.482;2022-08-01T01:46:45;1.48;;;1.38;;
46216;SDS011;47258;59.424;13.482;2022-08-01T01:49:14;6.38;;;1.48;;
46216;SDS011;47258;59.424;13.482;2022-08-01T01:51:42;7.07;;;1.60;;
46216;SDS011;47258;59.424;13.482;2022-08-01T01:54:12;3.30;;;1.83;;
46216;SDS011;47258;59.424;13.482;2022-08-01T01:56:39;6.45;;;1.55;;
46216;SDS011;47258;59.424;13.482;2022-08-01T01:59:14;1.55;;;1.45;;
46216;SDS011;47258;59.424;13.482;2022-08-01T02:01:46;6.55;;;2.30;;
46216;SDS011;47258;59.424;13.482;2022-08-01T02:06:42;7.75;;;2.22;;
46216;SDS011;47258;59.424;13.482;2022-08-01T02:09:11;3.33;;;2.00;;
46216;SDS011;47258;59.424;13.482;2022-08-01T02:11:41;6.70;;;2.70;;
46216;SDS011;47258;59.424;13.482;2022-08-01T02:14:10;4.35;;;2.78;;
46216;SDS011;47258;59.424;13.482;2022-08-01T02:16:39;5.70;;;1.92;;
46216;SDS011;47258;59.424;13.482;2022-08-01T02:19:09;4.57;;;2.65;;
46216;SDS011;47258;59.424;13.482;2022-08-01T02:21:37;9.00;;;3.50;;
46216;SDS011;47258;59.424;13.482;2022-08-01T02:24:10;7.10;;;3.92;;
46216;SDS011;47258;59.424;13.482;2022-08-01T02:26:41;9.15;;;3.42;;
46216;SDS011;47258;59.424;13.482;2022-08-01T02:29:14;10.10;;;4.43;;
46216;SDS011;47258;59.424;13.482;2022-08-01T02:31:46;11.73;;;4.25;;
46216;SDS011;47258;59.424;13.482;2022-08-01T02:34:17;8.05;;;3.88;;
46216;SDS011;47258;59.424;13.482;2022-08-01T02:36:45;9.18;;;3.97;;
46216;SDS011;47258;59.424;13.482;2022-08-01T02:39:14;8.67;;;4.17;;
46216;SDS011;47258;59.424;13.482;2022-08-01T02:41:46;6.97;;;4.03;;
46216;SDS011;47258;59.424;13.482;2022-08-01T02:44:16;16.92;;;4.68;;
46216;SDS011;47258;59.424;13.482;2022-08-01T02:46:50;8.48;;;4.10;;
46216;SDS011;47258;59.424;13.482;2022-08-01T02:49:20;6.60;;;4.97;;
46216;SDS011;47258;59.424;13.482;2022-08-01T02:51:51;9.55;;;5.07;;
46216;SDS011;47258;59.424;13.482;2022-08-01T02:54:20;13.73;;;5.80;;
46216;SDS011;47258;59.424;13.482;2022-08-01T02:56:49;6.20;;;4.23;;
46216;SDS011;47258;59.424;13.482;2022-08-01T02:59:18;7.22;;;5.30;;
46216;SDS011;47258;59.424;13.482;2022-08-01T03:01:49;5.90;;;4.82;;
46216;SDS011;47258;59.424;13.482;2022-08-01T03:04:20;8.25;;;5.50;;
46216;SDS011;47258;59.424;13.482;2022-08-01T03:06:49;7.53;;;5.30;;
46216;SDS011;47258;59.424;13.482;2022-08-01T03:09:18;8.30;;;4.82;;
46216;SDS011;47258;59.424;13.482;2022-08-01T03:11:47;6.97;;;5.03;;
46216;SDS011;47258;59.424;13.482;2022-08-01T03:14:15;9.27;;;4.68;;
46216;SDS011;47258;59.424;13.482;2022-08-01T03:16:44;8.95;;;5.20;;
46216;SDS011;47258;59.424;13.482;2022-08-01T03:19:12;6.30;;;4.95;;
46216;SDS011;47258;59.424;13.482;2022-08-01T03:21:43;8.70;;;3.85;;
46216;SDS011;47258;59.424;13.482;2022-08-01T03:26:39;6.03;;;3.40;;
46216;SDS011;47258;59.424;13.482;2022-08-01T03:29:08;7.57;;;4.47;;
46216;SDS011;47258;59.424;13.482;2022-08-01T03:31:39;4.70;;;3.88;;
46216;SDS011;47258;59.424;13.482;2022-08-01T03:34:08;4.75;;;3.90;;
46216;SDS011;47258;59.424;13.482;2022-08-01T03:36:37;6.65;;;3.70;;
46216;SDS011;47258;59.424;13.482;2022-08-01T03:39:11;6.10;;;3.92;;
46216;SDS011;47258;59.424;13.482;2022-08-01T03:41:41;7.53;;;5.22;;
46216;SDS011;47258;59.424;13.482;2022-08-01T03:44:13;9.27;;;4.35;;
46216;SDS011;47258;59.424;13.482;2022-08-01T03:46:42;4.70;;;3.97;;
46216;SDS011;47258;59.424;13.482;2022-08-01T03:49:13;4.63;;;3.05;;
46216;SDS011;47258;59.424;13.482;2022-08-01T03:51:45;4.50;;;3.58;;
46216;SDS011;47258;59.424;13.482;2022-08-01T03:54:14;4.97;;;3.20;;
46216;SDS011;47258;59.424;13.482;2022-08-01T03:56:43;5.18;;;3.75;;
46216;SDS011;47258;59.424;13.482;2022-08-01T03:59:14;3.97;;;2.83;;
46216;SDS011;47258;59.424;13.482;2022-08-01T04:01:42;3.47;;;2.50;;
46216;SDS011;47258;59.424;13.482;2022-08-01T04:04:11;4.10;;;3.40;;
46216;SDS011;47258;59.424;13.482;2022-08-01T04:06:39;5.93;;;2.50;;
46216;SDS011;47258;59.424;13.482;2022-08-01T04:09:07;5.43;;;3.70;;
46216;SDS011;47258;59.424;13.482;2022-08-01T04:11:34;3.70;;;3.03;;
46216;SDS011;47258;59.424;13.482;2022-08-01T04:14:02;5.05;;;3.10;;
46216;SDS011;47258;59.424;13.482;2022-08-01T04:16:29;2.95;;;2.72;;
46216;SDS011;47258;59.424;13.482;2022-08-01T04:18:56;3.42;;;3.10;;
46216;SDS011;47258;59.424;13.482;2022-08-01T04:21:24;3.40;;;2.85;;
46216;SDS011;47258;59.424;13.482;2022-08-01T04:23:54;3.35;;;2.75;;
46216;SDS011;47258;59.424;13.482;2022-08-01T04:26:25;5.93;;;2.65;;
46216;SDS011;47258;59.424;13.482;2022-08-01T04:28:53;4.40;;;2.63;;
46216;SDS011;47258;59.424;13.482;2022-08-01T04:31:22;7.47;;;2.75;;
46216;SDS011;47258;59.424;13.482;2022-08-01T04:33:51;2.40;;;2.20;;
46216;SDS011;47258;59.424;13.482;2022-08-01T04:36:22;4.38;;;2.85;;
46216;SDS011;47258;59.424;13.482;2022-08-01T04:38:52;2.78;;;2.35;;
46216;SDS011;47258;59.424;13.482;2022-08-01T04:41:22;2.80;;;1.90;;
46216;SDS011;47258;59.424;13.482;2022-08-01T04:43:51;2.30;;;2.03;;
46216;SDS011;47258;59.424;13.482;2022-08-01T04:46:20;3.10;;;1.85;;
46216;SDS011;47258;59.424;13.482;2022-08-01T04:48:48;3.60;;;2.00;;
46216;SDS011;47258;59.424;13.482;2022-08-01T04:51:16;1.63;;;1.52;;
46216;SDS011;47258;59.424;13.482;2022-08-01T04:53:47;4.22;;;1.85;;
46216;SDS011;47258;59.424;13.482;2022-08-01T04:56:15;3.20;;;1.75;;
46216;SDS011;47258;59.424;13.482;2022-08-01T04:58:43;3.78;;;1.98;;
46216;SDS011;47258;59.424;13.482;2022-08-01T05:01:12;1.85;;;1.70;;
46216;SDS011;47258;59.424;13.482;2022-08-01T05:03:40;1.80;;;1.70;;
46216;SDS011;47258;59.424;13.482;2022-08-01T05:06:08;2.10;;;1.90;;
46216;SDS011;47258;59.424;13.482;2022-08-01T05:08:35;3.55;;;1.92;;
46216;SDS011;47258;59.424;13.482;2022-08-01T05:11:02;2.33;;;2.00;;
46216;SDS011;47258;59.424;13.482;2022-08-01T05:13:29;8.32;;;2.10;;
46216;SDS011;47258;59.424;13.482;2022-08-01T05:15:55;3.65;;;2.17;;
46216;SDS011;47258;59.424;13.482;2022-08-01T05:18:24;2.65;;;2.13;;
46216;SDS011;47258;59.424;13.482;2022-08-01T05:20:51;3.30;;;2.70;;
46216;SDS011;47258;59.424;13.482;2022-08-01T05:23:18;5.05;;;2.58;;
46216;SDS011;47258;59.424;13.482;2022-08-01T05:25:45;2.15;;;2.05;;
46216;SDS011;47258;59.424;13.482;2022-08-01T05:28:14;3.00;;;2.33;;
46216;SDS011;47258;59.424;13.482;2022-08-01T05:30:40;2.88;;;2.45;;
46216;SDS011;47258;59.424;13.482;2022-08-01T05:33:07;3.70;;;2.65;;
46216;SDS011;47258;59.424;13.482;2022-08-01T05:35:36;2.72;;;2.45;;
46216;SDS011;47258;59.424;13.482;2022-08-01T05:38:03;4.45;;;2.65;;
46216;SDS011;47258;59.424;13.482;2022-08-01T05:40:30;4.82;;;3.22;;
46216;SDS011;47258;59.424;13.482;2022-08-01T05:42:57;3.63;;;2.30;;
46216;SDS011;47258;59.424;13.482;2022-08-01T05:45:24;3.90;;;2.97;;
46216;SDS011;47258;59.424;13.482;2022-08-01T05:47:51;4.53;;;2.97;;
46216;SDS011;47258;59.424;13.482;2022-08-01T05:50:18;4.25;;;3.10;;
46216;SDS011;47258;59.424;13.482;2022-08-01T05:52:46;3.22;;;3.00;;
46216;SDS011;47258;59.424;13.482;2022-08-01T05:55:13;3.88;;;2.75;;
46216;SDS011;47258;59.424;13.482;2022-08-01T05:57:40;4.15;;;2.50;;
46216;SDS011;47258;59.424;13.482;2022-08-01T06:00:08;3.25;;;2.95;;
46216;SDS011;47258;59.424;13.482;2022-08-01T06:02:39;4.00;;;3.70;;
46216;SDS011;47258;59.424;13.482;2022-08-01T06:05:07;8.05;;;4.63;;
46216;SDS011;47258;59.424;13.482;2022-08-01T06:07:35;5.22;;;4.70;;
46216;SDS011;47258;59.424;13.482;2022-08-01T06:10:05;7.53;;;5.45;;
46216;SDS011;47258;59.424;13.482;2022-08-01T06:12:33;5.93;;;5.43;;
46216;SDS011;47258;59.424;13.482;2022-08-01T06:15:01;8.27;;;5.28;;
46216;SDS011;47258;59.424;13.482;2022-08-01T06:17:28;10.00;;;6.35;;
46216;SDS011;47258;59.424;13.482;2022-08-01T06:19:55;8.35;;;5.80;;
46216;SDS011;47258;59.424;13.482;2022-08-01T06:22:22;4.97;;;4.50;;
46216;SDS011;47258;59.424;13.482;2022-08-01T06:24:49;5.05;;;4.65;;
46216;SDS011;47258;59.424;13.482;2022-08-01T06:27:17;6.38;;;4.10;;
46216;SDS011;47258;59.424;13.482;2022-08-01T06:29:44;6.28;;;4.97;;
46216;SDS011;47258;59.424;13.482;2022-08-01T06:32:12;4.15;;;3.85;;
46216;SDS011;47258;59.424;13.482;2022-08-01T06:34:38;4.65;;;4.00;;
46216;SDS011;47258;59.424;13.482;2022-08-01T06:37:05;6.75;;;3.42;;
46216;SDS011;47258;59.424;13.482;2022-08-01T06:39:32;4.38;;;3.35;;
46216;SDS011;47258;59.424;13.482;2022-08-01T06:41:59;5.20;;;4.53;;
46216;SDS011;47258;59.424;13.482;2022-08-01T06:44:28;3.78;;;3.47;;
46216;SDS011;47258;59.424;13.482;2022-08-01T06:46:54;5.68;;;3.92;;
46216;SDS011;47258;59.424;13.482;2022-08-01T06:49:23;3.00;;;2.80;;
46216;SDS011;47258;59.424;13.482;2022-08-01T06:51:50;3.95;;;3.50;;
46216;SDS011;47258;59.424;13.482;2022-08-01T06:54:17;3.35;;;3.05;;
46216;SDS011;47258;59.424;13.482;2022-08-01T06:56:44;3.55;;;3.25;;
46216;SDS011;47258;59.424;13.482;2022-08-01T06:59:11;3.25;;;2.95;;
46216;SDS011;47258;59.424;13.482;2022-08-01T07:01:39;2.65;;;2.45;;
46216;SDS011;47258;59.424;13.482;2022-08-01T07:04:07;3.60;;;3.05;;
46216;SDS011;47258;59.424;13.482;2022-08-01T07:06:34;4.10;;;2.67;;
46216;SDS011;47258;59.424;13.482;2022-08-01T07:09:00;3.35;;;2.58;;
46216;SDS011;47258;59.424;13.482;2022-08-01T07:11:29;2.60;;;2.40;;
46216;SDS011;47258;59.424;13.482;2022-08-01T07:13:56;2.60;;;2.40;;
46216;SDS011;47258;59.424;13.482;2022-08-01T07:16:24;3.85;;;2.45;;
46216;SDS011;47258;59.424;13.482;2022-08-01T07:18:52;3.35;;;2.42;;
46216;SDS011;47258;59.424;13.482;2022-08-01T07:21:19;2.40;;;2.30;;
46216;SDS011;47258;59.424;13.482;2022-08-01T07:23:46;2.67;;;2.47;;
46216;SDS011;47258;59.424;13.482;2022-08-01T07:26:13;1.98;;;1.88;;
46216;SDS011;47258;59.424;13.482;2022-08-01T07:28:40;2.15;;;1.80;;
46216;SDS011;47258;59.424;13.482;2022-08-01T08:15:48;1.30;;;1.30;;
46216;SDS011;47258;59.424;13.482;2022-08-01T08:18:15;2.05;;;1.33;;
46216;SDS011;47258;59.424;13.482;2022-08-01T08:20:44;1.20;;;1.10;;
46216;SDS011;47258;59.424;13.482;2022-08-01T08:23:11;0.93;;;0.93;;
46216;SDS011;47258;59.424;13.482;2022-08-01T08:25:56;1.23;;;1.02;;
46216;SDS011;47258;59.424;13.482;2022-08-01T08:28:22;1.42;;;1.40;;
46216;SDS011;47258;59.424;13.482;2022-08-01T08:30:51;4.25;;;1.23;;
46216;SDS011;47258;59.424;13.482;2022-08-01T08:33:20;6.18;;;1.40;;
46216;SDS011;47258;59.424;13.482;2022-08-01T08:35:46;1.25;;;1.02;;
46216;SDS011;47258;59.424;13.482;2022-08-01T08:38:13;1.42;;;1.33;;
46216;SDS011;47258;59.424;13.482;2022-08-01T08:40:40;2.35;;;1.30;;
46216;SDS011;47258;59.424;13.482;2022-08-01T08:43:08;2.28;;;1.42;;
46216;SDS011;47258;59.424;13.482;2022-08-01T08:45:35;1.00;;;1.00;;
46216;SDS011;47258;59.424;13.482;2022-08-01T08:48:04;1.35;;;1.20;;
46216;SDS011;47258;59.424;13.482;2022-08-01T08:50:32;0.80;;;0.80;;
46216;SDS011;47258;59.424;13.482;2022-08-01T08:52:59;0.98;;;0.95;;
46216;SDS011;47258;59.424;13.482;2022-08-01T08:55:28;1.85;;;1.75;;
46216;SDS011;47258;59.424;13.482;2022-08-01T08:57:55;1.48;;;1.23;;
46216;SDS011;47258;59.424;13.482;2022-08-01T09:00:24;1.40;;;1.25;;
46216;SDS011;47258;59.424;13.482;2022-08-01T09:02:51;0.90;;;0.90;;
46216;SDS011;47258;59.424;13.482;2022-08-01T09:05:21;1.20;;;1.20;;
46216;SDS011;47258;59.424;13.482;2022-08-01T09:07:50;0.73;;;0.73;;
46216;SDS011;47258;59.424;13.482;2022-08-01T09:10:17;0.80;;;0.80;;
46216;SDS011;47258;59.424;13.482;2022-08-01T09:13:04;1.52;;;1.05;;
46216;SDS011;47258;59.424;13.482;2022-08-01T09:15:40;0.95;;;0.90;;
46216;SDS011;47258;59.424;13.482;2022-08-01T09:21:09;0.90;;;0.90;;
46216;SDS011;47258;59.424;13.482;2022-08-01T09:23:40;1.70;;;0.80;;
46216;SDS011;47258;59.424;13.482;2022-08-01T09:26:09;2.08;;;0.98;;
46216;SDS011;47258;59.424;13.482;2022-08-01T09:28:38;2.60;;;0.90;;
46216;SDS011;47258;59.424;13.482;2022-08-01T09:31:06;2.88;;;0.95;;
46216;SDS011;47258;59.424;13.482;2022-08-01T09:33:46;0.90;;;0.90;;
46216;SDS011;47258;59.424;13.482;2022-08-01T09:36:20;2.60;;;0.80;;
46216;SDS011;47258;59.424;13.482;2022-08-01T09:38:48;0.82;;;0.60;;
46216;SDS011;47258;59.424;13.482;2022-08-01T09:41:15;1.20;;;1.05;;
46216;SDS011;47258;59.424;13.482;2022-08-01T09:43:47;1.13;;;1.13;;
46216;SDS011;47258;59.424;13.482;2022-08-01T09:46:16;0.70;;;0.70;;
46216;SDS011;47258;59.424;13.482;2022-08-01T09:48:56;0.82;;;0.82;;
46216;SDS011;47258;59.424;13.482;2022-08-01T09:51:29;0.60;;;0.60;;
46216;SDS011;47258;59.424;13.482;2022-08-01T09:53:58;3.15;;;0.68;;
46216;SDS011;47258;59.424;13.482;2022-08-01T09:56:26;0.60;;;0.60;;
46216;SDS011;47258;59.424;13.482;2022-08-01T09:59:01;0.70;;;0.70;;
46216;SDS011;47258;59.424;13.482;2022-08-01T10:01:28;0.45;;;0.45;;
46216;SDS011;47258;59.424;13.482;2022-08-01T10:04:08;0.50;;;0.50;;
46216;SDS011;47258;59.424;13.482;2022-08-01T10:06:38;0.77;;;0.77;;
46216;SDS011;47258;59.424;13.482;2022-08-01T10:09:07;0.57;;;0.57;;
46216;SDS011;47258;59.424;13.482;2022-08-01T10:11:34;0.45;;;0.40;;
46216;SDS011;47258;59.424;13.482;2022-08-01T10:16:31;0.40;;;0.40;;
46216;SDS011;47258;59.424;13.482;2022-08-01T10:18:59;0.68;;;0.68;;
46216;SDS011;47258;59.424;13.482;2022-08-01T10:21:28;1.80;;;0.60;;
46216;SDS011;47258;59.424;13.482;2022-08-01T10:23:59;0.70;;;0.70;;
46216;SDS011;47258;59.424;13.482;2022-08-01T10:26:29;0.40;;;0.40;;
46216;SDS011;47258;59.424;13.482;2022-08-01T10:28:59;1.17;;;1.02;;
46216;SDS011;47258;59.424;13.482;2022-08-01T10:31:28;1.60;;;1.50;;
46216;SDS011;47258;59.424;13.482;2022-08-01T10:33:58;1.50;;;1.40;;
46216;SDS011;47258;59.424;13.482;2022-08-01T10:36:26;1.10;;;1.10;;
46216;SDS011;47258;59.424;13.482;2022-08-01T10:38:54;1.98;;;1.88;;
46216;SDS011;47258;59.424;13.482;2022-08-01T10:41:22;1.75;;;1.65;;
46216;SDS011;47258;59.424;13.482;2022-08-01T10:43:51;0.93;;;0.93;;
46216;SDS011;47258;59.424;13.482;2022-08-01T10:46:19;1.10;;;0.43;;
46216;SDS011;47258;59.424;13.482;2022-08-01T10:48:53;0.50;;;0.45;;
46216;SDS011;47258;59.424;13.482;2022-08-01T10:51:23;0.68;;;0.68;;
46216;SDS011;47258;59.424;13.482;2022-08-01T10:53:51;0.88;;;0.88;;
46216;SDS011;47258;59.424;13.482;2022-08-01T10:56:19;1.37;;;1.30;;
46216;SDS011;47258;59.424;13.482;2022-08-01T10:58:49;1.02;;;1.02;;
46216;SDS011;47258;59.424;13.482;2022-08-01T11:01:28;0.43;;;0.43;;
46216;SDS011;47258;59.424;13.482;2022-08-01T11:04:02;0.43;;;0.43;;
46216;SDS011;47258;59.424;13.482;2022-08-01T11:06:54;1.13;;;1.05;;
46216;SDS011;47258;59.424;13.482;2022-08-01T11:09:38;1.13;;;0.60;;
46216;SDS011;47258;59.424;13.482;2022-08-01T11:12:08;0.82;;;0.60;;
46216;SDS011;47258;59.424;13.482;2022-08-01T11:17:44;2.10;;;0.65;;
46216;SDS011;47258;59.424;13.482;2022-08-01T11:20:14;0.70;;;0.60;;
46216;SDS011;47258;59.424;13.482;2022-08-01T11:26:12;1.30;;;0.80;;
46216;SDS011;47258;59.424;13.482;2022-08-01T11:28:43;1.20;;;1.10;;
46216;SDS011;47258;59.424;13.482;2022-08-01T11:33:53;1.00;;;1.00;;
46216;SDS011;47258;59.424;13.482;2022-08-01T11:36:21;1.77;;;1.20;;
46216;SDS011;47258;59.424;13.482;2022-08-01T11:38:48;0.90;;;0.90;;
46216;SDS011;47258;59.424;13.482;2022-08-01T11:41:37;0.70;;;0.70;;
46216;SDS011;47258;59.424;13.482;2022-08-01T11:44:04;0.60;;;0.60;;
46216;SDS011;47258;59.424;13.482;2022-08-01T11:49:30;0.80;;;0.80;;
46216;SDS011;47258;59.424;13.482;2022-08-01T11:52:15;4.28;;;1.42;;
46216;SDS011;47258;59.424;13.482;2022-08-01T11:54:44;1.02;;;0.52;;
46216;SDS011;47258;59.424;13.482;2022-08-01T11:57:12;0.70;;;0.70;;
46216;SDS011;47258;59.424;13.482;2022-08-01T11:59:41;1.30;;;1.30;;
46216;SDS011;47258;59.424;13.482;2022-08-01T12:02:18;0.75;;;0.75;;
46216;SDS011;47258;59.424;13.482;2022-08-01T12:04:48;0.52;;;0.52;;
46216;SDS011;47258;59.424;13.482;2022-08-01T12:07:21;0.47;;;0.47;;
46216;SDS011;47258;59.424;13.482;2022-08-01T12:09:56;0.75;;;0.73;;
46216;SDS011;47258;59.424;13.482;2022-08-01T12:12:25;0.47;;;0.47;;
46216;SDS011;47258;59.424;13.482;2022-08-01T12:14:54;3.90;;;0.60;;
46216;SDS011;47258;59.424;13.482;2022-08-01T12:17:29;1.00;;;0.70;;
46216;SDS011;47258;59.424;13.482;2022-08-01T12:19:59;1.20;;;0.90;;
46216;SDS011;47258;59.424;13.482;2022-08-01T12:22:26;0.60;;;0.60;;
46216;SDS011;47258;59.424;13.482;2022-08-01T12:24:53;0.98;;;0.90;;
46216;SDS011;47258;59.424;13.482;2022-08-01T12:27:24;2.50;;;0.68;;
46216;SDS011;47258;59.424;13.482;2022-08-01T12:29:52;0.70;;;0.70;;
46216;SDS011;47258;59.424;13.482;2022-08-01T12:32:20;0.90;;;0.90;;
46216;SDS011;47258;59.424;13.482;2022-08-01T12:34:49;0.55;;;0.55;;
46216;SDS011;47258;59.424;13.482;2022-08-01T12:37:18;0.60;;;0.60;;
46216;SDS011;47258;59.424;13.482;2022-08-01T12:39:45;0.38;;;0.38;;
46216;SDS011;47258;59.424;13.482;2022-08-01T12:42:13;0.50;;;0.50;;
46216;SDS011;47258;59.424;13.482;2022-08-01T12:44:41;0.68;;;0.22;;
46216;SDS011;47258;59.424;13.482;2022-08-01T12:47:11;0.32;;;0.32;;
46216;SDS011;47258;59.424;13.482;2022-08-01T12:49:39;0.30;;;0.30;;
46216;SDS011;47258;59.424;13.482;2022-08-01T12:52:08;1.30;;;1.13;;
46216;SDS011;47258;59.424;13.482;2022-08-01T12:57:31;0.40;;;0.40;;
46216;SDS011;47258;59.424;13.482;2022-08-01T13:00:09;0.82;;;0.70;;
46216;SDS011;47258;59.424;13.482;2022-08-01T13:02:42;9.93;;;0.68;;
46216;SDS011;47258;59.424;13.482;2022-08-01T13:05:10;0.50;;;0.50;;
